Time;durP1;ratioP1;P1;durP2;ratioP2;P2;SDS_P1;SDS_P2;PMS_P1;PMS_P2;Temp;Humidity;BMP_temperature;BMP_pressure;BME280_temperature;BME280_humidity;BME280_pressure;Samples;Min_cycle;Max_cycle;Signal;HPM_P1;HPM_P2
2023/02/25 00:00:22;;;;;;;2.60;1.23;;;6.40;99.90;;;;;;4972977;28;20118;-75
2023/02/25 00:02:49;;;;;;;2.80;1.27;;;6.40;99.90;;;;;;4972272;28;20371;-75
2023/02/25 00:05:16;;;;;;;1.95;0.93;;;6.30;99.90;;;;;;4964057;28;20025;-76
2023/02/25 00:07:43;;;;;;;2.67;1.48;;;6.30;99.90;;;;;;4951468;28;20042;-75
2023/02/25 00:10:11;;;;;;;1.90;0.75;;;6.20;99.90;;;;;;4948296;28;20098;-75
2023/02/25 00:12:38;;;;;;;2.13;0.93;;;6.20;99.90;;;;;;4956280;28;20518;-75
2023/02/25 00:15:05;;;;;;;1.17;0.57;;;6.20;99.90;;;;;;4948095;28;20039;-75
2023/02/25 00:17:32;;;;;;;4.57;1.40;;;6.20;99.90;;;;;;4973277;28;20495;-75
2023/02/25 00:19:57;;;;;;;4.95;1.08;;;6.10;99.90;;;;;;4964873;28;20078;-75
2023/02/25 00:22:24;;;;;;;1.73;0.88;;;6.10;99.90;;;;;;4955848;28;20042;-75
2023/02/25 00:24:54;;;;;;;7.85;2.70;;;6.10;99.90;;;;;;4965268;28;20559;-75
2023/02/25 00:27:22;;;;;;;4.22;0.65;;;6.10;99.90;;;;;;4938731;28;20153;-75
2023/02/25 00:29:51;;;;;;;2.47;1.15;;;6.10;99.90;;;;;;4965369;28;20083;-75
2023/02/25 00:32:17;;;;;;;2.00;1.10;;;6.00;99.90;;;;;;4955482;28;20114;-75
2023/02/25 00:34:43;;;;;;;0.68;0.50;;;6.00;99.90;;;;;;4965946;28;20023;-75
2023/02/25 00:37:09;;;;;;;1.15;0.85;;;5.90;99.90;;;;;;4971729;28;20053;-75
2023/02/25 00:39:40;;;;;;;2.80;1.00;;;5.90;99.90;;;;;;4966955;28;20046;-76
2023/02/25 00:42:13;;;;;;;0.43;0.38;;;5.80;99.90;;;;;;4971336;28;20113;-75
2023/02/25 00:44:41;;;;;;;1.17;0.68;;;5.70;99.90;;;;;;4960224;28;20027;-75
2023/02/25 00:47:07;;;;;;;1.40;0.77;;;5.70;99.90;;;;;;4971258;28;20089;-75
2023/02/25 00:49:33;;;;;;;1.92;1.30;;;5.60;99.90;;;;;;4971059;28;20022;-75
2023/02/25 00:51:59;;;;;;;1.13;0.68;;;5.50;99.90;;;;;;4922729;29;20044;-75
2023/02/25 00:54:25;;;;;;;4.90;0.98;;;5.50;99.90;;;;;;4967308;28;20043;-75
2023/02/25 00:56:50;;;;;;;7.75;1.50;;;5.50;99.90;;;;;;4969054;28;20035;-75
2023/02/25 00:59:16;;;;;;;1.17;0.60;;;5.50;99.90;;;;;;4968814;28;20027;-75
2023/02/25 01:01:42;;;;;;;4.03;1.83;;;5.50;99.90;;;;;;4967976;28;20031;-75
2023/02/25 01:04:08;;;;;;;5.13;1.25;;;5.50;99.90;;;;;;4970092;28;20494;-75
2023/02/25 01:06:36;;;;;;;3.38;1.10;;;5.50;99.90;;;;;;4966610;28;20061;-75
2023/02/25 01:09:06;;;;;;;5.00;1.52;;;5.50;99.90;;;;;;4953490;28;20031;-75
2023/02/25 01:11:35;;;;;;;6.53;2.35;;;5.40;99.90;;;;;;4949480;28;20410;-75
2023/02/25 01:14:09;;;;;;;4.45;1.60;;;5.40;99.90;;;;;;4970720;28;20042;-75
2023/02/25 01:16:35;;;;;;;1.90;1.15;;;5.40;99.90;;;;;;4966814;28;20041;-75
2023/02/25 01:19:06;;;;;;;6.28;2.72;;;5.30;99.90;;;;;;4970192;28;20438;-75
2023/02/25 01:21:39;;;;;;;5.85;1.73;;;5.30;99.90;;;;;;4949285;28;20035;-75
2023/02/25 01:24:11;;;;;;;7.22;1.90;;;5.40;99.90;;;;;;4970208;28;20038;-75
2023/02/25 01:26:43;;;;;;;6.53;1.70;;;5.40;99.90;;;;;;4950057;28;20069;-75
2023/02/25 01:29:13;;;;;;;3.25;1.27;;;5.40;99.90;;;;;;4952430;28;20261;-75
2023/02/25 01:31:40;;;;;;;5.70;1.77;;;5.40;99.90;;;;;;4950396;28;20034;-75
2023/02/25 01:34:08;;;;;;;2.30;1.27;;;5.40;99.90;;;;;;4952838;28;20062;-75
2023/02/25 01:36:34;;;;;;;6.70;1.25;;;5.30;99.90;;;;;;4966441;28;20118;-75
2023/02/25 01:39:01;;;;;;;9.23;1.67;;;5.30;99.90;;;;;;4947618;28;20121;-75
2023/02/25 01:41:29;;;;;;;3.53;1.45;;;5.30;99.90;;;;;;4965333;28;20038;-75
2023/02/25 01:44:11;;;;;;;9.70;1.95;;;5.30;99.90;;;;;;4953987;28;20126;-75
2023/02/25 01:46:39;;;;;;;3.10;2.13;;;5.10;99.90;;;;;;4966617;28;20114;-76
2023/02/25 01:49:27;;;;;;;4.93;2.05;;;5.10;99.90;;;;;;4969538;28;20035;-75
2023/02/25 01:52:19;;;;;;;4.53;2.03;;;5.00;99.90;;;;;;4954038;28;20093;-75
2023/02/25 01:54:51;;;;;;;6.80;2.30;;;5.00;99.90;;;;;;4946411;29;20495;-75
2023/02/25 01:57:18;;;;;;;11.35;2.58;;;5.00;99.90;;;;;;4937481;28;20042;-75
2023/02/25 01:59:47;;;;;;;2.80;1.25;;;5.00;99.90;;;;;;4947359;29;20526;-76
2023/02/25 02:02:18;;;;;;;5.60;1.83;;;5.00;99.90;;;;;;4970487;28;20027;-75
2023/02/25 02:04:49;;;;;;;5.43;2.42;;;5.00;99.90;;;;;;4952678;28;20041;-75
2023/02/25 02:07:17;;;;;;;4.75;1.30;;;5.00;99.90;;;;;;4961172;28;20106;-75
2023/02/25 02:09:55;;;;;;;5.90;2.15;;;5.10;99.90;;;;;;4945075;29;20023;-75
2023/02/25 02:12:41;;;;;;;3.20;1.02;;;5.10;99.90;;;;;;4968462;28;20035;-75
2023/02/25 02:15:12;;;;;;;2.00;0.98;;;5.20;99.90;;;;;;4955206;28;20105;-75
2023/02/25 02:17:47;;;;;;;4.27;1.63;;;5.20;99.90;;;;;;4934664;29;20027;-75
2023/02/25 02:20:26;;;;;;;6.50;1.42;;;5.20;99.90;;;;;;4962943;28;20390;-75
2023/02/25 02:23:31;;;;;;;4.68;1.63;;;5.20;99.90;;;;;;4949350;29;20043;-75
2023/02/25 02:26:44;;;;;;;5.97;1.50;;;5.30;99.90;;;;;;4960081;28;20027;-75
2023/02/25 02:30:07;;;;;;;2.80;1.67;;;5.30;99.90;;;;;;4949501;28;20035;-75
2023/02/25 02:32:59;;;;;;;4.47;1.63;;;5.40;99.90;;;;;;4954730;28;20031;-75
2023/02/25 02:35:46;;;;;;;2.72;1.08;;;5.40;99.90;;;;;;4943915;29;20067;-75
2023/02/25 02:38:48;;;;;;;2.50;0.93;;;5.40;99.90;;;;;;4960795;28;20045;-75
2023/02/25 02:41:32;;;;;;;5.55;1.00;;;5.50;99.90;;;;;;4948912;28;20038;-75
2023/02/25 02:44:25;;;;;;;3.45;1.10;;;5.50;99.90;;;;;;4970150;28;20816;-75
2023/02/25 02:46:59;;;;;;;2.83;2.03;;;5.50;99.90;;;;;;4952772;28;20383;-75
2023/02/25 02:49:53;;;;;;;1.95;1.02;;;5.50;99.90;;;;;;4949472;29;20027;-75
2023/02/25 02:52:26;;;;;;;1.90;0.70;;;5.60;99.90;;;;;;4953644;28;20118;-75
2023/02/25 02:55:07;;;;;;;2.30;1.27;;;5.60;99.90;;;;;;4946449;29;20059;-75
2023/02/25 02:57:37;;;;;;;7.85;0.68;;;5.50;99.90;;;;;;4939395;28;20035;-76
2023/02/25 03:00:16;;;;;;;4.47;1.05;;;5.60;99.90;;;;;;4946276;28;20039;-75
2023/02/25 03:02:54;;;;;;;3.83;0.77;;;5.60;99.90;;;;;;4970882;28;20511;-75
2023/02/25 03:05:25;;;;;;;1.08;0.80;;;5.50;99.90;;;;;;4946675;28;20027;-75
2023/02/25 03:08:03;;;;;;;10.00;2.63;;;5.50;99.90;;;;;;4961731;28;20034;-75
2023/02/25 03:10:29;;;;;;;2.97;1.02;;;5.60;99.90;;;;;;4963047;28;20042;-75
2023/02/25 03:12:55;;;;;;;1.42;0.45;;;5.50;99.90;;;;;;4944622;28;20035;-75
2023/02/25 03:15:24;;;;;;;4.47;0.68;;;5.40;99.90;;;;;;4971224;28;20394;-75
2023/02/25 03:17:58;;;;;;;2.20;1.10;;;5.40;99.90;;;;;;4936209;29;20117;-75
2023/02/25 03:20:38;;;;;;;1.13;0.90;;;5.40;99.90;;;;;;4953282;29;20118;-76
2023/02/25 03:23:13;;;;;;;0.90;0.68;;;5.40;99.90;;;;;;4962753;28;20038;-75
2023/02/25 03:25:47;;;;;;;3.72;0.90;;;5.20;99.90;;;;;;4949700;28;20099;-75
2023/02/25 03:28:30;;;;;;;1.00;0.75;;;5.20;99.90;;;;;;4956930;28;20103;-75
2023/02/25 03:31:10;;;;;;;4.53;1.52;;;5.20;99.90;;;;;;4949244;28;20027;-75
2023/02/25 03:33:55;;;;;;;2.17;0.60;;;5.20;99.90;;;;;;4957286;28;20512;-75
2023/02/25 03:36:39;;;;;;;1.55;0.73;;;5.10;99.90;;;;;;4938307;29;20483;-75
2023/02/25 03:39:12;;;;;;;2.75;1.08;;;5.20;99.90;;;;;;4946477;28;20034;-75
2023/02/25 03:41:44;;;;;;;8.10;1.15;;;5.20;99.90;;;;;;4951869;28;20770;-76
2023/02/25 03:44:19;;;;;;;1.80;0.82;;;5.40;99.90;;;;;;4954277;28;20487;-75
2023/02/25 03:46:46;;;;;;;4.32;1.10;;;5.40;99.90;;;;;;4953062;28;20030;-75
2023/02/25 03:49:23;;;;;;;8.90;0.95;;;5.50;99.90;;;;;;4953230;28;20031;-75
2023/02/25 03:51:50;;;;;;;2.03;0.73;;;5.60;99.90;;;;;;4970227;28;20046;-75
2023/02/25 03:54:16;;;;;;;9.35;1.30;;;5.60;99.90;;;;;;4953095;28;20171;-75
2023/02/25 03:56:48;;;;;;;1.30;0.93;;;5.70;99.90;;;;;;4935829;28;20123;-75
2023/02/25 03:59:16;;;;;;;6.75;1.20;;;5.70;99.90;;;;;;4952923;28;20077;-75
2023/02/25 04:01:46;;;;;;;0.60;0.32;;;5.80;99.90;;;;;;4968945;28;20030;-75
2023/02/25 04:04:11;;;;;;;10.45;0.73;;;5.70;99.90;;;;;;4950568;28;20046;-75
2023/02/25 04:06:37;;;;;;;3.80;1.27;;;5.70;99.90;;;;;;4963482;28;20031;-75
2023/02/25 04:09:04;;;;;;;6.93;1.33;;;5.70;99.90;;;;;;4973387;28;20123;-75
2023/02/25 04:11:31;;;;;;;4.07;0.85;;;5.80;99.90;;;;;;4971129;28;20030;-74
2023/02/25 04:13:57;;;;;;;5.20;0.52;;;5.80;99.90;;;;;;4939477;28;20424;-75
2023/02/25 04:16:23;;;;;;;5.85;1.10;;;5.80;99.90;;;;;;4949232;29;20042;-75
2023/02/25 04:18:48;;;;;;;4.45;0.75;;;5.70;99.90;;;;;;4951634;28;20085;-75
2023/02/25 04:21:34;;;;;;;0.32;0.32;;;5.70;99.90;;;;;;4969555;28;20027;-75
2023/02/25 04:24:01;;;;;;;1.52;0.80;;;5.80;99.90;;;;;;4954209;28;20035;-75
2023/02/25 04:26:27;;;;;;;3.53;0.88;;;5.80;99.90;;;;;;4971462;28;20611;-75
2023/02/25 04:28:54;;;;;;;5.28;0.60;;;5.90;99.90;;;;;;4964699;28;20028;-75
2023/02/25 04:31:20;;;;;;;13.05;0.60;;;5.90;99.90;;;;;;4973318;28;20483;-76
2023/02/25 04:33:48;;;;;;;2.45;0.82;;;5.80;99.90;;;;;;4973056;28;20034;-76
2023/02/25 04:36:43;;;;;;;0.55;0.30;;;5.80;99.90;;;;;;4955456;28;20039;-75
2023/02/25 04:39:11;;;;;;;3.25;0.80;;;5.70;99.90;;;;;;4970371;28;20133;-75
2023/02/25 04:41:37;;;;;;;1.23;0.93;;;5.70;99.90;;;;;;4955709;28;20037;-75
2023/02/25 04:44:05;;;;;;;2.75;0.95;;;5.70;99.90;;;;;;4955738;28;20166;-75
2023/02/25 04:46:38;;;;;;;1.15;0.70;;;5.80;99.90;;;;;;4939775;28;20031;-75
2023/02/25 04:49:06;;;;;;;2.10;0.28;;;5.80;99.90;;;;;;4972762;28;20026;-75
2023/02/25 04:51:32;;;;;;;11.45;1.73;;;5.80;99.90;;;;;;4972997;28;20027;-75
2023/02/25 04:53:58;;;;;;;3.78;0.40;;;5.80;99.90;;;;;;4972645;28;20042;-75
2023/02/25 04:56:24;;;;;;;1.15;0.85;;;5.90;99.90;;;;;;4970851;28;20105;-75
2023/02/25 04:58:50;;;;;;;3.95;0.50;;;5.80;99.90;;;;;;4964154;28;20376;-75
2023/02/25 05:01:16;;;;;;;0.98;0.60;;;5.90;99.90;;;;;;4951484;28;20033;-75
2023/02/25 05:03:42;;;;;;;5.15;0.80;;;5.90;99.90;;;;;;4967635;28;20058;-74
2023/02/25 05:06:08;;;;;;;5.25;0.93;;;5.90;99.90;;;;;;4952592;28;20062;-75
2023/02/25 05:08:34;;;;;;;4.72;1.10;;;5.80;99.90;;;;;;4949288;28;20058;-74
2023/02/25 05:11:01;;;;;;;3.08;0.60;;;5.80;99.90;;;;;;4971280;28;20035;-74
2023/02/25 05:13:28;;;;;;;1.85;0.70;;;5.70;99.90;;;;;;4950294;29;20475;-74
2023/02/25 05:16:04;;;;;;;2.58;0.63;;;5.80;99.90;;;;;;4964920;28;20042;-74
2023/02/25 05:18:30;;;;;;;9.02;1.33;;;5.80;99.90;;;;;;4964603;28;20030;-75
2023/02/25 05:20:55;;;;;;;3.88;0.85;;;5.70;99.90;;;;;;4971451;28;20461;-75
2023/02/25 05:23:21;;;;;;;0.63;0.40;;;5.70;99.90;;;;;;4964409;28;20031;-75
2023/02/25 05:25:47;;;;;;;0.98;0.38;;;5.60;99.90;;;;;;4953697;28;20030;-75
2023/02/25 05:28:12;;;;;;;3.92;0.98;;;5.70;99.90;;;;;;4963413;28;20502;-75
2023/02/25 05:30:38;;;;;;;1.65;0.70;;;5.70;99.90;;;;;;4971634;28;20113;-75
2023/02/25 05:33:05;;;;;;;2.78;0.95;;;5.70;99.90;;;;;;4964000;28;20030;-75
2023/02/25 05:35:32;;;;;;;1.02;0.70;;;5.60;99.90;;;;;;4970926;28;20046;-75
2023/02/25 05:37:58;;;;;;;8.73;1.10;;;5.50;99.90;;;;;;4946774;28;20035;-75
2023/02/25 05:40:24;;;;;;;4.22;1.00;;;5.50;99.90;;;;;;4954177;28;20046;-75
2023/02/25 05:42:50;;;;;;;1.35;0.82;;;5.60;99.90;;;;;;4962642;28;20037;-75
2023/02/25 05:45:16;;;;;;;15.23;1.00;;;5.60;99.90;;;;;;4971778;28;20026;-75
2023/02/25 05:47:43;;;;;;;3.75;1.75;;;5.60;99.90;;;;;;4944243;29;20406;-75
2023/02/25 05:50:10;;;;;;;5.03;1.98;;;5.70;99.90;;;;;;4969201;28;20027;-75
2023/02/25 05:52:35;;;;;;;3.15;1.63;;;5.70;99.90;;;;;;4965499;28;20027;-75
2023/02/25 05:55:01;;;;;;;4.10;1.05;;;5.60;99.90;;;;;;4969503;28;20502;-75
2023/02/25 05:57:27;;;;;;;1.77;1.23;;;5.60;99.90;;;;;;4954332;28;20030;-75
2023/02/25 05:59:53;;;;;;;2.55;0.68;;;5.60;99.90;;;;;;4952555;28;20026;-74
2023/02/25 06:02:19;;;;;;;7.00;0.85;;;5.70;99.90;;;;;;4946851;28;20058;-75
2023/02/25 06:04:46;;;;;;;1.67;0.57;;;5.70;99.90;;;;;;4971320;28;20033;-75
2023/02/25 06:07:13;;;;;;;3.33;0.82;;;5.60;99.90;;;;;;4963648;28;20473;-75
2023/02/25 06:09:39;;;;;;;4.05;1.10;;;5.60;99.90;;;;;;4950694;29;20400;-75
2023/02/25 06:12:05;;;;;;;3.25;0.98;;;5.60;99.90;;;;;;4970029;28;20042;-74
2023/02/25 06:14:31;;;;;;;6.32;1.67;;;5.60;99.90;;;;;;4953895;28;20078;-73
2023/02/25 06:16:56;;;;;;;1.88;0.95;;;5.60;99.90;;;;;;4963493;28;20039;-74
2023/02/25 06:19:25;;;;;;;0.63;0.55;;;5.70;99.90;;;;;;4962308;28;20133;-74
2023/02/25 06:21:54;;;;;;;4.78;1.17;;;5.80;99.90;;;;;;4946685;28;20035;-77
2023/02/25 06:24:21;;;;;;;7.85;1.10;;;5.80;99.90;;;;;;4933154;28;20055;-74
2023/02/25 06:26:47;;;;;;;1.65;0.43;;;5.80;99.90;;;;;;4946180;28;20023;-75
2023/02/25 06:29:13;;;;;;;7.35;1.33;;;5.80;99.90;;;;;;4970528;28;20483;-75
2023/02/25 06:31:39;;;;;;;3.67;1.23;;;5.80;99.90;;;;;;4930458;28;20546;-74
2023/02/25 06:34:05;;;;;;;1.38;0.65;;;5.80;99.90;;;;;;4970743;28;20383;-76
2023/02/25 06:36:31;;;;;;;2.42;1.05;;;5.80;99.90;;;;;;4952525;28;20039;-76
2023/02/25 06:38:58;;;;;;;2.42;0.70;;;5.70;99.90;;;;;;4954219;28;20058;-74
2023/02/25 06:41:24;;;;;;;1.33;0.63;;;5.80;99.90;;;;;;4955460;28;20078;-75
2023/02/25 06:43:51;;;;;;;1.85;0.85;;;5.80;99.90;;;;;;4961086;28;20030;-73
2023/02/25 06:46:23;;;;;;;1.05;0.52;;;5.80;99.90;;;;;;4953140;28;20483;-71
2023/02/25 06:48:48;;;;;;;6.00;0.93;;;5.70;99.90;;;;;;4971894;28;20503;-73
2023/02/25 06:51:14;;;;;;;1.55;0.70;;;5.80;99.90;;;;;;4965861;28;20089;-73
2023/02/25 06:53:43;;;;;;;3.17;1.02;;;5.80;99.90;;;;;;4972759;28;20035;-74
2023/02/25 06:56:11;;;;;;;1.80;1.00;;;5.60;99.90;;;;;;4969935;28;20062;-72
2023/02/25 06:58:38;;;;;;;0.40;0.30;;;5.70;99.90;;;;;;4951131;29;20034;-71
2023/02/25 07:01:15;;;;;;;0.93;0.57;;;5.70;99.90;;;;;;4950041;28;20070;-72
2023/02/25 07:03:44;;;;;;;4.57;1.33;;;5.80;99.90;;;;;;4957433;28;20105;-74
2023/02/25 07:06:12;;;;;;;1.95;0.68;;;5.80;99.90;;;;;;4940172;28;20035;-73
2023/02/25 07:08:38;;;;;;;6.05;1.15;;;5.80;99.90;;;;;;4951203;28;20041;-73
2023/02/25 07:11:16;;;;;;;8.30;1.08;;;5.80;99.90;;;;;;4972726;28;20030;-74
2023/02/25 07:13:43;;;;;;;4.88;0.90;;;5.70;99.90;;;;;;4957252;28;20034;-74
2023/02/25 07:16:11;;;;;;;26.20;1.10;;;5.60;99.90;;;;;;4953478;28;20039;-74
2023/02/25 07:18:37;;;;;;;5.60;1.48;;;5.60;99.90;;;;;;4965856;28;20034;-74
2023/02/25 07:21:03;;;;;;;1.20;0.85;;;5.60;99.90;;;;;;4941751;28;20037;-75
2023/02/25 07:23:28;;;;;;;13.90;1.15;;;5.70;99.90;;;;;;4966127;28;20428;-74
2023/02/25 07:25:54;;;;;;;3.92;1.15;;;5.80;99.90;;;;;;4966163;28;20035;-74
2023/02/25 07:28:20;;;;;;;3.70;0.77;;;5.80;99.90;;;;;;4973774;28;20030;-73
2023/02/25 07:30:46;;;;;;;13.60;1.13;;;5.80;99.90;;;;;;4970228;28;20114;-76
2023/02/25 07:33:12;;;;;;;5.70;0.98;;;5.80;99.90;;;;;;4965893;28;20288;-74
2023/02/25 07:35:37;;;;;;;3.70;0.68;;;5.80;99.90;;;;;;4973442;28;20122;-69
2023/02/25 07:38:03;;;;;;;7.20;1.48;;;5.70;99.90;;;;;;4965839;28;20094;-72
2023/02/25 07:40:29;;;;;;;0.88;0.57;;;5.80;99.90;;;;;;4973128;28;20031;-68
2023/02/25 07:42:54;;;;;;;0.82;0.60;;;5.80;99.90;;;;;;4965774;28;20035;-70
2023/02/25 07:45:20;;;;;;;3.55;0.60;;;5.90;99.90;;;;;;4956625;28;20033;-69
2023/02/25 07:47:46;;;;;;;3.45;0.85;;;5.90;99.90;;;;;;4965860;28;20027;-66
2023/02/25 07:50:12;;;;;;;17.38;2.00;;;5.90;99.90;;;;;;4971894;28;20066;-68
2023/02/25 07:52:37;;;;;;;1.33;0.70;;;6.00;99.90;;;;;;4967090;28;20078;-68
2023/02/25 07:55:05;;;;;;;8.05;1.38;;;6.00;99.90;;;;;;4972165;28;20045;-68
2023/02/25 07:57:31;;;;;;;4.88;0.95;;;6.00;99.90;;;;;;4967801;28;20034;-68
2023/02/25 07:59:57;;;;;;;8.15;1.48;;;5.80;99.90;;;;;;4953726;28;20085;-72
2023/02/25 08:02:24;;;;;;;2.20;1.40;;;5.80;99.90;;;;;;4968793;28;20043;-69
2023/02/25 08:04:50;;;;;;;3.58;1.13;;;5.90;99.90;;;;;;4936708;28;20026;-69
2023/02/25 08:07:16;;;;;;;1.15;0.73;;;6.00;99.90;;;;;;4952391;29;20030;-69
2023/02/25 08:09:42;;;;;;;1.58;0.57;;;6.00;99.90;;;;;;4968669;28;20398;-69
2023/02/25 08:12:08;;;;;;;1.38;0.77;;;5.90;99.90;;;;;;4970648;28;20034;-72
2023/02/25 08:14:36;;;;;;;1.27;0.57;;;5.90;99.90;;;;;;4950466;28;20038;-68
2023/02/25 08:17:02;;;;;;;12.13;0.70;;;5.90;99.90;;;;;;4955207;28;20184;-69
2023/02/25 08:19:28;;;;;;;1.70;0.85;;;6.00;99.90;;;;;;4960082;28;20118;-69
2023/02/25 08:21:54;;;;;;;0.77;0.55;;;6.00;99.90;;;;;;4963695;28;20062;-69
2023/02/25 08:24:21;;;;;;;5.30;1.23;;;6.00;99.90;;;;;;4972953;28;20124;-68
2023/02/25 08:26:48;;;;;;;1.17;0.90;;;5.70;99.90;;;;;;4955699;28;20073;-69
2023/02/25 08:29:14;;;;;;;6.35;1.70;;;5.80;99.90;;;;;;4951094;28;20027;-70
2023/02/25 08:31:39;;;;;;;0.50;0.50;;;6.00;99.90;;;;;;4967927;28;20097;-69
2023/02/25 08:34:06;;;;;;;2.38;0.90;;;6.00;99.90;;;;;;4955976;28;20031;-68
2023/02/25 08:36:32;;;;;;;7.35;1.02;;;6.10;99.90;;;;;;4948773;28;20026;-69
2023/02/25 08:38:58;;;;;;;6.53;0.82;;;6.10;99.90;;;;;;4964422;28;20105;-69
2023/02/25 08:41:27;;;;;;;2.08;0.93;;;6.00;99.90;;;;;;4955693;28;20039;-70
2023/02/25 08:43:56;;;;;;;1.17;0.65;;;6.00;99.90;;;;;;4972784;28;20026;-69
2023/02/25 08:46:25;;;;;;;10.23;1.95;;;6.10;99.90;;;;;;4953536;28;20443;-69
2023/02/25 08:48:53;;;;;;;2.72;1.00;;;6.10;99.90;;;;;;4964662;28;20337;-70
2023/02/25 08:51:21;;;;;;;1.88;0.75;;;6.10;99.90;;;;;;4938878;28;20088;-70
2023/02/25 08:53:47;;;;;;;7.18;0.90;;;6.10;99.90;;;;;;4953432;28;20434;-69
2023/02/25 08:56:15;;;;;;;3.63;1.10;;;6.20;99.90;;;;;;4968514;28;20050;-68
2023/02/25 08:58:42;;;;;;;11.98;1.67;;;6.20;99.90;;;;;;4944671;28;20534;-69
2023/02/25 09:01:15;;;;;;;0.82;0.55;;;6.00;99.90;;;;;;4948050;28;20043;-69
2023/02/25 09:03:51;;;;;;;10.43;1.42;;;6.10;99.90;;;;;;4929502;29;20502;-69
2023/02/25 09:06:20;;;;;;;1.63;0.70;;;6.20;99.90;;;;;;4986152;28;20030;-70
2023/02/25 09:09:36;;;;;;;2.03;0.43;;;6.30;99.90;;;;;;4971811;28;20019;-69
2023/02/25 09:12:04;;;;;;;3.25;1.20;;;6.40;99.90;;;;;;4940979;28;20042;-70
2023/02/25 09:14:30;;;;;;;5.20;1.02;;;6.50;99.90;;;;;;4971841;28;20478;-70
2023/02/25 09:16:56;;;;;;;4.88;1.15;;;6.40;99.90;;;;;;4971485;28;20095;-70
2023/02/25 09:19:22;;;;;;;0.85;0.52;;;6.50;99.90;;;;;;4971261;28;20088;-69
2023/02/25 09:21:48;;;;;;;3.78;1.50;;;6.60;99.90;;;;;;4963525;28;20503;-70
2023/02/25 09:24:15;;;;;;;0.70;0.50;;;6.60;99.90;;;;;;4971360;28;20082;-70
2023/02/25 09:26:41;;;;;;;2.67;0.80;;;6.60;99.90;;;;;;4963911;28;20510;-70
2023/02/25 09:29:07;;;;;;;4.82;0.93;;;6.50;99.90;;;;;;4971014;28;20542;-70
2023/02/25 09:31:38;;;;;;;4.10;1.25;;;6.40;99.90;;;;;;4964045;28;20390;-69
2023/02/25 09:34:07;;;;;;;1.60;0.40;;;6.40;99.90;;;;;;4954448;28;20042;-69
2023/02/25 09:36:34;;;;;;;1.50;0.80;;;6.40;99.90;;;;;;4973107;23;20408;-68
2023/02/25 09:39:00;;;;;;;4.10;0.98;;;6.40;99.90;;;;;;4973023;28;20034;-68
2023/02/25 09:42:18;;;;;;;2.90;0.98;;;6.40;99.90;;;;;;4990305;28;20034;-68
2023/02/25 09:44:48;;;;;;;10.50;1.52;;;6.30;99.90;;;;;;4970322;28;20418;-67
2023/02/25 09:47:25;;;;;;;1.15;0.63;;;6.40;99.90;;;;;;4967027;28;20395;-68
2023/02/25 09:50:06;;;;;;;3.88;1.27;;;6.50;99.90;;;;;;4967928;28;20058;-67
2023/02/25 09:52:39;;;;;;;2.63;0.55;;;6.50;99.90;;;;;;4949877;29;20369;-68
2023/02/25 09:55:42;;;;;;;2.28;1.15;;;6.60;99.90;;;;;;4953224;28;20062;-69
2023/02/25 09:58:19;;;;;;;3.92;1.45;;;6.70;99.90;;;;;;4962439;28;20114;-69
2023/02/25 10:00:52;;;;;;;4.03;0.57;;;6.70;99.90;;;;;;4971192;28;20039;-68
2023/02/25 10:03:28;;;;;;;10.18;1.00;;;6.70;99.90;;;;;;4960331;28;20127;-69
2023/02/25 10:06:04;;;;;;;0.88;0.50;;;6.70;99.90;;;;;;4958337;28;20038;-68
2023/02/25 10:08:44;;;;;;;1.65;0.73;;;6.60;99.90;;;;;;4962664;28;20051;-69
2023/02/25 10:11:29;;;;;;;1.98;0.60;;;6.50;99.90;;;;;;4938384;28;20461;-68
2023/02/25 10:14:27;;;;;;;3.83;0.22;;;6.00;99.90;;;;;;4950173;28;20041;-68
2023/02/25 10:17:02;;;;;;;0.28;0.20;;;5.70;99.90;;;;;;4974885;28;20141;-68
2023/02/25 10:19:50;;;;;;;8.68;0.68;;;5.60;99.90;;;;;;4968692;28;20509;-68
2023/02/25 10:22:30;;;;;;;2.92;1.13;;;5.60;99.90;;;;;;4954651;28;20027;-68
2023/02/25 10:25:08;;;;;;;1.38;0.73;;;5.70;99.90;;;;;;4955710;28;20038;-67
2023/02/25 10:28:03;;;;;;;3.83;1.25;;;5.90;99.90;;;;;;4953411;29;20063;-70
2023/02/25 10:31:04;;;;;;;0.93;0.38;;;6.00;99.90;;;;;;4945102;28;20037;-67
2023/02/25 10:33:39;;;;;;;1.73;0.70;;;6.20;99.90;;;;;;4958143;28;20039;-67
2023/02/25 10:36:40;;;;;;;6.10;0.95;;;6.40;99.90;;;;;;4957644;28;20073;-68
2023/02/25 10:39:09;;;;;;;5.35;1.02;;;6.50;99.90;;;;;;4966967;28;20498;-70
2023/02/25 10:41:35;;;;;;;1.45;0.93;;;6.60;99.90;;;;;;4943747;28;20094;-69
2023/02/25 10:44:01;;;;;;;9.93;1.85;;;6.70;99.90;;;;;;4965771;28;20023;-67
2023/02/25 10:47:00;;;;;;;6.95;1.05;;;6.80;99.90;;;;;;4967325;28;20034;-67
2023/02/25 10:49:29;;;;;;;6.30;1.17;;;7.00;99.90;;;;;;4950380;28;20778;-68
2023/02/25 10:52:16;;;;;;;3.13;1.50;;;7.00;99.90;;;;;;4952528;28;20038;-67
2023/02/25 10:54:51;;;;;;;4.88;0.85;;;6.90;99.90;;;;;;4962175;28;20031;-67
2023/02/25 10:57:40;;;;;;;4.82;1.02;;;6.90;99.90;;;;;;4968781;28;20561;-67
2023/02/25 11:00:26;;;;;;;5.57;0.80;;;6.80;99.90;;;;;;4974272;28;20038;-67
2023/02/25 11:02:52;;;;;;;0.77;0.50;;;6.70;99.90;;;;;;4970848;28;20038;-67
2023/02/25 11:05:39;;;;;;;2.03;1.02;;;6.40;99.90;;;;;;4971148;28;20035;-67
2023/02/25 11:08:31;;;;;;;2.63;0.80;;;6.20;99.90;;;;;;4966768;28;20544;-66
2023/02/25 11:11:22;;;;;;;2.40;0.65;;;5.60;99.90;;;;;;4965586;28;20042;-66
2023/02/25 11:13:59;;;;;;;1.42;0.73;;;5.40;99.90;;;;;;4948622;28;20559;-67
2023/02/25 11:16:25;;;;;;;3.42;1.20;;;5.40;99.90;;;;;;4953282;28;20035;-69
2023/02/25 11:18:57;;;;;;;16.58;1.20;;;5.40;99.90;;;;;;4949140;29;20045;-68
2023/02/25 11:21:29;;;;;;;;;;;5.40;99.90;;;;;;4948821;28;20034;-69
2023/02/25 11:24:01;;;;;;;0.93;0.68;;;5.40;99.90;;;;;;4948850;28;20315;-70
2023/02/25 11:26:34;;;;;;;13.45;1.15;;;5.50;99.90;;;;;;4951040;29;20027;-72
2023/02/25 11:29:21;;;;;;;4.53;1.10;;;5.60;99.90;;;;;;4946710;28;20406;-68
2023/02/25 11:31:57;;;;;;;3.97;1.25;;;5.80;99.90;;;;;;4955177;28;20026;-73
2023/02/25 11:34:29;;;;;;;1.33;1.00;;;6.00;99.90;;;;;;4950249;28;20103;-71
2023/02/25 11:36:58;;;;;;;14.27;2.05;;;6.30;99.90;;;;;;4955879;28;20034;-71
2023/02/25 11:39:33;;;;;;;7.63;2.35;;;6.50;99.90;;;;;;4966841;28;20543;-69
2023/02/25 11:42:23;;;;;;;8.05;1.65;;;6.60;99.90;;;;;;4956446;28;20050;-69
2023/02/25 11:44:57;;;;;;;6.95;1.83;;;6.70;99.90;;;;;;4941482;29;20023;-68
2023/02/25 11:47:27;;;;;;;3.17;0.55;;;6.80;99.90;;;;;;4968216;28;20035;-70
2023/02/25 11:50:46;;;;;;;1.08;0.47;;;6.80;99.90;;;;;;4953810;28;20662;-69
2023/02/25 11:53:53;;;;;;;7.60;1.40;;;6.90;99.90;;;;;;4964927;28;20054;-70
2023/02/25 11:56:47;;;;;;;4.50;1.00;;;7.10;99.90;;;;;;4935758;28;20047;-69
2023/02/25 11:59:30;;;;;;;2.55;1.05;;;7.10;99.90;;;;;;4962727;28;20081;-69
2023/02/25 12:02:17;;;;;;;5.47;1.50;;;7.20;99.90;;;;;;4970704;28;20035;-66
2023/02/25 12:05:37;;;;;;;1.05;0.65;;;7.30;99.90;;;;;;4973111;28;20494;-73
2023/02/25 12:08:21;;;;;;;1.27;0.88;;;7.30;99.90;;;;;;4972542;28;20035;-67
2023/02/25 12:11:24;;;;;;;1.85;0.40;;;7.20;99.90;;;;;;4955113;28;20038;-71
2023/02/25 12:14:38;;;;;;;5.65;1.55;;;7.30;99.90;;;;;;4959876;28;20057;-70
2023/02/25 12:17:19;;;;;;;1.23;0.60;;;7.20;99.90;;;;;;4962974;28;20028;-69
2023/02/25 12:20:21;;;;;;;0.90;0.47;;;7.20;99.90;;;;;;4959798;28;20027;-73
2023/02/25 12:23:33;;;;;;;1.85;1.05;;;7.00;99.90;;;;;;4969457;28;20066;-69
2023/02/25 12:26:12;;;;;;;;;;;6.90;99.90;;;;;;4948316;28;20033;-68
2023/02/25 12:29:16;;;;;;;1.55;0.50;;;7.00;99.90;;;;;;4950749;28;19921;-69
2023/02/25 12:32:28;;;;;;;1.55;0.50;;;7.10;99.90;;;;;;4955005;28;20117;-73
2023/02/25 12:35:31;;;;;;;2.30;1.33;;;7.40;99.90;;;;;;4953952;28;20396;-69
2023/02/25 12:38:38;;;;;;;2.78;1.45;;;7.60;99.90;;;;;;4944760;28;20192;-68
2023/02/25 12:41:30;;;;;;;1.45;0.45;;;7.80;99.90;;;;;;4956994;28;20098;-68
2023/02/25 12:44:23;;;;;;;12.20;1.63;;;7.90;99.90;;;;;;4964190;28;20841;-68
2023/02/25 12:47:40;;;;;;;0.57;0.28;;;8.20;99.90;;;;;;4945140;29;20035;-68
2023/02/25 12:50:30;;;;;;;4.68;0.70;;;9.20;99.90;;;;;;4970143;28;20510;-68
2023/02/25 12:53:26;;;;;;;9.55;0.55;;;9.40;97.10;;;;;;4961981;28;20066;-68
2023/02/25 12:56:14;;;;;;;3.45;1.05;;;9.00;97.10;;;;;;4971687;28;20041;-68
2023/02/25 12:59:27;;;;;;;0.17;0.17;;;8.80;98.00;;;;;;4965376;28;20506;-68
2023/02/25 13:02:35;;;;;;;1.27;0.32;;;8.60;97.10;;;;;;4971464;28;20060;-68
2023/02/25 13:05:11;;;;;;;6.63;1.13;;;8.50;97.50;;;;;;4954257;28;20122;-68
2023/02/25 13:08:19;;;;;;;2.03;0.50;;;8.40;97.40;;;;;;4942287;28;20121;-68
2023/02/25 13:11:12;;;;;;;5.70;0.90;;;8.30;97.50;;;;;;4917129;28;20038;-68
2023/02/25 13:14:33;;;;;;;2.30;0.47;;;8.20;97.80;;;;;;4943596;29;20051;-68
2023/02/25 13:17:25;;;;;;;7.78;1.15;;;8.10;97.90;;;;;;4897440;29;20136;-68
2023/02/25 13:20:31;;;;;;;0.88;0.30;;;8.00;98.80;;;;;;4968056;28;20043;-68
2023/02/25 13:23:28;;;;;;;3.53;1.00;;;8.10;98.60;;;;;;4968832;28;20184;-70
2023/02/25 13:26:30;;;;;;;6.55;0.93;;;8.10;98.00;;;;;;4957364;28;20038;-70
2023/02/25 13:29:39;;;;;;;4.88;0.95;;;8.10;98.10;;;;;;4962967;28;20130;-70
2023/02/25 13:32:48;;;;;;;3.65;0.63;;;8.10;98.10;;;;;;4966848;28;20041;-70
2023/02/25 13:35:35;;;;;;;10.02;1.13;;;8.00;97.20;;;;;;4960148;28;20042;-70
2023/02/25 13:38:36;;;;;;;1.98;0.90;;;7.80;99.10;;;;;;4969092;28;20503;-70